Humidity-temperature Sensor

Selected Measurement Type: Air Temperature

 
Air Temperature [°C]     6 entries per hour
Showing data from 3/15/2015 (00:00:00 Z) to 3/8/2015 (05:00:00 Z)
Previous Next [ Day | 3-Days | 7-Days ]
First Last
Prev [ Day | 3-Days | 7-Days ] Next
First Last

Start Time:     :
End Time:     :     
Time (in GMT) :00 :50 :40 :30 :20 :10
Previous Next [ Day | 3-Days | 7-Days ]
First Last
Prev [ Day | 3-Days | 7-Days ] Next
First Last


123 => good data
MM => data is determined as missing
-- => data not received/configured
Back to Top Back to Top
3/15/2015 00:00 to 23:10 26.09 26.13 26.01 25.93 26.16 26.02
3/14/2015 23:00 to 22:10 26.03 25.85 25.92 26.03 25.93 25.98
3/14/2015 22:00 to 21:10 25.89 25.86 25.88 25.81 25.75 25.65
3/14/2015 21:00 to 20:10 25.68 25.88 25.81 25.92 25.92 25.73
3/14/2015 20:00 to 19:10 25.67 25.59 25.63 25.51 25.34 25.21
3/14/2015 19:00 to 18:10 26.09 26.01 25.95 26.19 26.06 26.04
3/14/2015 18:00 to 17:10 25.96 26.20 26.67 26.59 26.32 26.20
3/14/2015 17:00 to 16:10 26.27 25.97 26.18 25.82 25.58 25.44
3/14/2015 16:00 to 15:10 25.30 25.16 25.08 24.90 24.69 24.48
3/14/2015 15:00 to 14:10 24.40 24.18 24.08 24.05 23.90 24.09
3/14/2015 14:00 to 13:10 24.13 24.44 24.95 24.95 25.04 24.97
3/14/2015 13:00 to 12:10 24.97 24.85 24.88 24.69 24.92 24.72
3/14/2015 12:00 to 11:10 24.75 24.69 24.62 24.68 24.91 24.69
3/14/2015 11:00 to 10:10 24.72 24.56 24.76 24.86 25.08 25.52
3/14/2015 10:00 to 9:10 25.94 26.14 26.41 26.26 26.11 26.02
3/14/2015 09:00 to 8:10 26.23 26.20 26.14 26.16 26.11 25.89
3/14/2015 08:00 to 7:10 26.11 25.95 25.84 25.78 25.85 25.53
3/14/2015 07:00 to 6:10 25.42 25.30 25.31 25.13 25.14 25.46
3/14/2015 06:00 to 5:10 25.43 25.74 25.96 25.99 25.89 26.75
3/14/2015 05:00 to 4:10 27.11 27.10 26.99 27.05 26.98 26.91
3/14/2015 04:00 to 3:10 26.97 26.93 26.87 26.95 26.89 26.86
3/14/2015 03:00 to 2:10 26.84 26.84 26.85 26.92 26.96 26.86
3/14/2015 02:00 to 1:10 26.93 26.88 26.90 26.89 26.89 26.90
3/14/2015 01:00 to 0:10 26.91 26.90 26.95 26.88 26.86 26.95
3/14/2015 00:00 to 23:10 26.94 26.87 26.97 27.01 26.98 26.90
3/13/2015 23:00 to 22:10 26.95 26.98 27.04 27.01 26.89 26.82
3/13/2015 22:00 to 21:10 26.82 26.85 26.89 26.81 26.97 26.80
3/13/2015 21:00 to 20:10 26.82 26.78 26.90 26.79 26.95 26.73
3/13/2015 20:00 to 19:10 26.89 26.79 26.79 26.79 26.85 26.82
3/13/2015 19:00 to 18:10 26.75 26.76 26.79 26.91 26.79 26.85
3/13/2015 18:00 to 17:10 26.90 26.95 26.85 26.95 26.97 26.90
3/13/2015 17:00 to 16:10 26.96 26.91 27.04 26.90 27.07 26.92
3/13/2015 16:00 to 15:10 26.75 27.05 26.97 27.05 26.52 26.60
3/13/2015 15:00 to 14:10 26.70 26.41 26.49 26.42 26.39 26.41
3/13/2015 14:00 to 13:10 26.39 26.41 26.46 26.35 26.33 26.42
3/13/2015 13:00 to 12:10 26.38 26.38 26.47 26.40 26.37 26.44
3/13/2015 12:00 to 11:10 26.42 26.35 26.37 26.36 26.36 26.43
3/13/2015 11:00 to 10:10 26.36 26.41 26.49 26.50 26.35 26.48
3/13/2015 10:00 to 9:10 26.45 26.43 26.46 26.39 26.45 26.37
3/13/2015 09:00 to 8:10 26.50 26.54 26.47 26.50 26.55 26.54
3/13/2015 08:00 to 7:10 26.64 26.44 26.56 26.49 26.56 26.52
3/13/2015 07:00 to 6:10 26.57 26.47 26.54 26.47 26.59 26.57
3/13/2015 06:00 to 5:10 26.54 26.53 26.66 26.55 26.59 26.65
3/13/2015 05:00 to 4:10 26.60 26.61 26.60 26.65 26.67 26.67
3/13/2015 04:00 to 3:10 26.60 26.67 26.60 26.61 26.59 26.64
3/13/2015 03:00 to 2:10 26.61 26.67 26.66 26.60 26.63 26.69
3/13/2015 02:00 to 1:10 26.68 26.68 26.75 26.68 26.67 26.75
3/13/2015 01:00 to 0:10 26.73 26.70 26.75 26.73 26.79 26.69
3/13/2015 00:00 to 23:10 26.74 26.79 26.80 26.81 26.84 26.84
3/12/2015 23:00 to 22:10 26.72 26.84 26.64 26.75 26.66 26.73
3/12/2015 22:00 to 21:10 26.77 26.67 26.80 26.71 26.80 26.70
3/12/2015 21:00 to 20:10 26.69 26.75 26.75 26.73 26.69 26.73
3/12/2015 20:00 to 19:10 26.72 26.74 26.68 26.72 26.79 26.77
3/12/2015 19:00 to 18:10 26.71 26.73 26.81 26.83 26.82 26.91
3/12/2015 18:00 to 17:10 26.86 26.98 26.83 26.88 27.07 26.97
3/12/2015 17:00 to 16:10 26.99 26.87 26.90 27.03 26.89 26.87
3/12/2015 16:00 to 15:10 26.75 26.72 26.79 26.64 26.86 26.60
3/12/2015 15:00 to 14:10 26.52 26.57 26.54 26.43 26.47 26.45
3/12/2015 14:00 to 13:10 26.58 26.56 26.50 26.51 26.47 26.49
3/12/2015 13:00 to 12:10 26.54 26.48 26.46 26.49 26.41 26.42
3/12/2015 12:00 to 11:10 26.43 26.48 26.37 26.47 26.49 26.37
3/12/2015 11:00 to 10:10 26.49 26.42 26.52 26.50 26.35 26.64
3/12/2015 10:00 to 9:10 26.45 26.37 26.51 26.38 26.56 26.48
3/12/2015 09:00 to 8:10 26.53 26.46 26.52 26.58 26.62 26.54
3/12/2015 08:00 to 7:10 26.63 26.71 26.66 26.63 26.73 26.71
3/12/2015 07:00 to 6:10 26.74 26.69 26.72 26.90 26.78 26.75
3/12/2015 06:00 to 5:10 26.73 26.85 26.78 26.75 26.79 26.87
3/12/2015 05:00 to 4:10 26.92 26.85 26.81 26.84 26.84 26.86
3/12/2015 04:00 to 3:10 26.89 26.89 26.80 26.72 26.85 26.88
3/12/2015 03:00 to 2:10 26.81 26.91 26.79 26.81 26.86 26.89
3/12/2015 02:00 to 1:10 26.86 26.84 26.77 26.84 26.81 26.86
3/12/2015 01:00 to 0:10 26.77 26.77 26.78 26.86 26.78 26.85
3/12/2015 00:00 to 23:10 26.74 26.85 26.91 26.87 26.86 26.88
3/11/2015 23:00 to 22:10 26.91 27.04 26.84 26.78 26.84 26.85
3/11/2015 22:00 to 21:10 26.83 26.90 26.86 26.95 26.94 26.92
3/11/2015 21:00 to 20:10 26.91 27.03 27.05 27.14 27.02 27.01
3/11/2015 20:00 to 19:10 27.10 27.21 26.92 27.07 27.05 27.06
3/11/2015 19:00 to 18:10 26.99 27.10 27.24 26.97 27.10 27.11
3/11/2015 18:00 to 17:10 27.05 27.12 27.01 27.11 26.99 27.03
3/11/2015 17:00 to 16:10 27.04 27.05 26.91 26.87 26.94 26.83
3/11/2015 16:00 to 15:10 26.84 26.83 26.76 26.71 26.71 26.78
3/11/2015 15:00 to 14:10 26.66 26.73 26.60 26.63 26.59 26.57
3/11/2015 14:00 to 13:10 26.63 26.66 26.56 26.77 26.63 26.72
3/11/2015 13:00 to 12:10 26.67 26.69 26.72 26.60 26.76 26.61
3/11/2015 12:00 to 11:10 26.64 26.55 26.72 26.63 26.62 26.71
3/11/2015 11:00 to 10:10 26.59 26.63 26.75 26.67 26.68 26.78
3/11/2015 10:00 to 9:10 26.75 26.81 26.74 26.83 26.86 26.83
3/11/2015 09:00 to 8:10 26.79 26.86 26.91 26.76 26.81 26.82
3/11/2015 08:00 to 7:10 26.80 26.85 26.90 26.88 26.84 26.82
3/11/2015 07:00 to 6:10 26.90 26.81 26.90 26.77 26.83 26.76
3/11/2015 06:00 to 5:10 26.83 26.84 26.86 26.91 26.80 26.80
3/11/2015 05:00 to 4:10 26.77 26.78 26.79 26.80 26.84 26.95
3/11/2015 04:00 to 3:10 26.85 26.87 26.89 26.76 26.82 26.79
3/11/2015 03:00 to 2:10 26.85 26.86 26.81 26.88 26.90 26.99
3/11/2015 02:00 to 1:10 26.84 27.03 27.13 27.14 27.00 27.20
3/11/2015 01:00 to 0:10 27.21 27.16 27.17 27.17 27.25 27.05
3/11/2015 00:00 to 23:10 27.11 26.97 27.05 27.18 27.06 27.17
3/10/2015 23:00 to 22:10 27.13 27.14 27.05 27.12 26.98 27.00
3/10/2015 22:00 to 21:10 26.97 27.06 27.01 27.02 27.05 27.10
3/10/2015 21:00 to 20:10 27.17 27.10 27.10 27.04 27.12 27.04
3/10/2015 20:00 to 19:10 27.06 27.09 27.03 27.11 27.05 27.05
3/10/2015 19:00 to 18:10 26.98 27.09 27.07 27.20 27.29 27.13
3/10/2015 18:00 to 17:10 27.20 27.20 27.20 27.13 27.18 27.18
3/10/2015 17:00 to 16:10 27.21 27.16 27.26 27.36 27.47 27.34
3/10/2015 16:00 to 15:10 27.31 27.26 26.97 27.24 27.02 27.07
3/10/2015 15:00 to 14:10 26.95 26.76 26.86 26.86 26.79 26.86
3/10/2015 14:00 to 13:10 26.78 26.83 26.81 26.74 26.73 26.79
3/10/2015 13:00 to 12:10 26.66 26.71 26.67 26.63 26.72 26.70
3/10/2015 12:00 to 11:10 26.73 26.71 26.76 26.71 26.70 26.74
3/10/2015 11:00 to 10:10 26.70 26.78 26.78 26.87 26.78 26.84
3/10/2015 10:00 to 9:10 26.95 26.92 26.91 26.88 26.84 26.91
3/10/2015 09:00 to 8:10 26.88 26.94 26.88 26.95 26.90 27.03
3/10/2015 08:00 to 7:10 27.11 27.06 27.07 27.03 27.12 27.27
3/10/2015 07:00 to 6:10 27.19 27.10 27.24 27.17 27.25 27.30
3/10/2015 06:00 to 5:10 27.34 27.39 27.38 27.33 27.31 27.42
3/10/2015 05:00 to 4:10 27.36 27.25 27.36 27.37 27.41 27.31
3/10/2015 04:00 to 3:10 27.36 27.28 27.40 27.38 27.38 27.46
3/10/2015 03:00 to 2:10 27.32 27.37 27.48 27.36 27.39 27.38
3/10/2015 02:00 to 1:10 27.66 27.65 27.68 27.68 27.74 27.73
3/10/2015 01:00 to 0:10 27.73 27.74 27.65 27.63 27.55 27.65
3/10/2015 00:00 to 23:10 27.50 27.53 27.53 27.57 27.54 27.60
3/9/2015 23:00 to 22:10 27.51 27.56 27.54 27.48 27.58 27.42
3/9/2015 22:00 to 21:10 27.47 27.57 27.55 27.56 27.54 27.57
3/9/2015 21:00 to 20:10 27.62 27.48 27.43 27.49 27.59 27.58
3/9/2015 20:00 to 19:10 27.60 27.48 27.56 27.41 27.44 27.49
3/9/2015 19:00 to 18:10 27.41 27.39 27.35 27.26 27.36 27.43
3/9/2015 18:00 to 17:10 27.46 27.56 27.55 27.51 27.41 27.31
3/9/2015 17:00 to 16:10 27.73 27.60 27.52 27.00 26.96 26.77
3/9/2015 16:00 to 15:10 26.54 25.92 27.33 27.33 27.26 27.13
3/9/2015 15:00 to 14:10 27.10 26.85 27.12 27.22 27.22 27.24
3/9/2015 14:00 to 13:10 27.21 27.15 27.16 27.10 27.06 27.10
3/9/2015 13:00 to 12:10 27.12 27.12 27.05 27.02 27.06 27.03
3/9/2015 12:00 to 11:10 26.97 27.02 26.99 27.10 26.99 27.03
3/9/2015 11:00 to 10:10 26.99 27.03 27.01 27.04 27.09 27.03
3/9/2015 10:00 to 9:10 27.03 27.15 26.99 27.03 27.10 27.24
3/9/2015 09:00 to 8:10 27.22 27.23 27.16 27.23 27.18 27.30
3/9/2015 08:00 to 7:10 27.26 27.35 27.22 27.27 27.33 27.26
3/9/2015 07:00 to 6:10 27.27 27.31 27.25 27.38 27.34 27.40
3/9/2015 06:00 to 5:10 27.24 27.36 27.34 27.21 27.25 27.25
3/9/2015 05:00 to 4:10 27.24 27.16 27.21 27.19 27.25 27.15
3/9/2015 04:00 to 3:10 27.23 27.23 27.23 27.19 27.22 27.24
3/9/2015 03:00 to 2:10 27.25 27.14 27.23 27.23 27.25 27.19
3/9/2015 02:00 to 1:10 27.21 27.25 27.23 27.31 27.21 27.30
3/9/2015 01:00 to 0:10 27.33 27.34 27.30 27.29 27.36 27.31
3/9/2015 00:00 to 23:10 27.29 27.37 27.39 27.42 27.40 27.39
3/8/2015 23:00 to 22:10 27.40 27.42 27.53 27.52 27.52 27.55
3/8/2015 22:00 to 21:10 27.51 27.47 27.42 27.50 27.45 27.37
3/8/2015 21:00 to 20:10 27.28 27.40 27.58 27.60 27.54 27.46
3/8/2015 20:00 to 19:10 27.49 27.34 27.30 27.41 27.35 27.35
3/8/2015 19:00 to 18:10 27.33 27.36 27.39 27.51 27.48 27.45
3/8/2015 18:00 to 17:10 27.63 27.44 27.55 27.58 27.57 27.50
3/8/2015 17:00 to 16:10 27.50 27.54 27.44 27.59 27.64 27.68
3/8/2015 16:00 to 15:10 27.71 27.74 27.73 27.47 27.45 27.20
3/8/2015 15:00 to 14:10 27.18 27.15 27.18 27.19 27.21 27.17
3/8/2015 14:00 to 13:10 27.12 27.12 26.94 26.92 26.95 26.99
3/8/2015 13:00 to 12:10 26.93 26.91 26.93 26.96 26.98 26.85
3/8/2015 12:00 to 11:10 26.77 26.82 26.84 26.74 26.73 26.63
3/8/2015 11:00 to 10:10 26.60 26.64 26.52 26.67 27.02 26.92
3/8/2015 10:00 to 9:10 26.94 26.87 26.83 26.88 26.86 26.95
3/8/2015 09:00 to 8:10 26.92 26.93 26.98 27.21 27.16 27.14
3/8/2015 08:00 to 7:10 27.04 27.10 27.17 27.16 27.16 27.20
3/8/2015 07:00 to 6:10 27.22 27.19 27.19 27.26 27.30 27.31
3/8/2015 06:00 to 5:10 27.30 27.32 27.25 27.33 27.23 27.31